createdAt,value
2022-11-12T00:02:34.147Z,24.07
2022-11-12T00:05:21.879Z,25.00
2022-11-12T00:08:10.931Z,21.07
2022-11-12T00:10:58.554Z,26.33
2022-11-12T00:13:46.017Z,23.90
2022-11-12T00:16:33.066Z,26.52
2022-11-12T00:19:20.814Z,23.93
2022-11-12T00:22:09.529Z,24.20
2022-11-12T00:24:56.650Z,23.17
2022-11-12T00:27:44.663Z,23.70
2022-11-12T00:30:32.930Z,22.90
2022-11-12T00:33:20.744Z,20.70
2022-11-12T00:36:10.782Z,28.90
2022-11-12T00:38:58.071Z,20.80
2022-11-12T00:41:45.428Z,26.93
2022-11-12T00:44:32.771Z,23.87
2022-11-12T00:47:20.263Z,21.03
2022-11-12T00:50:10.447Z,22.42
2022-11-12T00:52:57.713Z,19.70
2022-11-12T00:55:45.417Z,22.50
2022-11-12T00:58:34.289Z,21.67
2022-11-12T01:01:22.656Z,20.02
2022-11-12T01:04:11.099Z,23.07
2022-11-12T01:06:58.512Z,23.77
2022-11-12T01:09:46.288Z,23.47
2022-11-12T01:12:34.033Z,20.33
2022-11-12T01:15:21.523Z,23.98
2022-11-12T01:18:10.934Z,20.70
2022-11-12T01:21:06.342Z,22.93
2022-11-12T01:23:54.133Z,19.50
2022-11-12T01:26:41.823Z,20.97
2022-11-12T01:29:29.154Z,22.90
2022-11-12T01:32:16.236Z,24.20
2022-11-12T01:35:04.481Z,19.40
2022-11-12T01:37:52.098Z,25.63
2022-11-12T01:40:40.033Z,22.62
2022-11-12T01:43:27.591Z,19.37
2022-11-12T01:46:20.547Z,19.30
2022-11-12T01:49:10.964Z,18.43
2022-11-12T01:52:01.537Z,21.60
2022-11-12T01:54:52.666Z,22.67
2022-11-12T01:57:43.345Z,18.13
2022-11-12T02:00:30.742Z,18.45
2022-11-12T02:03:23.934Z,19.67
2022-11-12T02:06:14.724Z,18.90
2022-11-12T02:09:02.182Z,21.60
2022-11-12T02:11:49.665Z,19.70
2022-11-12T02:14:37.825Z,20.27
2022-11-12T02:17:25.581Z,17.97
2022-11-12T02:20:15.528Z,17.27
2022-11-12T02:23:03.240Z,18.20
2022-11-12T02:25:51.149Z,23.63
2022-11-12T02:28:38.799Z,23.73
2022-11-12T02:31:26.371Z,20.70
2022-11-12T02:34:13.962Z,19.37
2022-11-12T02:37:01.452Z,21.47
2022-11-12T02:39:48.757Z,19.70
2022-11-12T02:42:36.203Z,21.20
2022-11-12T02:45:23.872Z,20.20
2022-11-12T02:48:24.853Z,21.24
2022-11-12T02:54:35.587Z,16.43
2022-11-12T02:57:23.676Z,22.75
2022-11-12T03:00:14.135Z,21.48
2022-11-12T03:03:01.587Z,22.00
2022-11-12T03:05:57.747Z,21.13
2022-11-12T03:08:45.207Z,18.77
2022-11-12T03:11:32.945Z,19.50
2022-11-12T03:14:20.096Z,21.63
2022-11-12T03:17:07.951Z,18.60
2022-11-12T03:19:55.162Z,20.15
2022-11-12T03:25:29.738Z,24.10
2022-11-12T03:28:17.887Z,21.57
2022-11-12T03:31:05.184Z,23.57
2022-11-12T03:33:52.950Z,20.67
2022-11-12T03:36:40.617Z,21.83
2022-11-12T03:39:28.197Z,25.40
2022-11-12T03:42:15.515Z,27.70
2022-11-12T03:45:02.846Z,21.63
2022-11-12T03:47:55.944Z,24.20
2022-11-12T03:50:43.730Z,23.60
2022-11-12T03:53:30.774Z,22.93
2022-11-12T03:56:17.978Z,32.83
2022-11-12T03:59:06.088Z,27.20
2022-11-12T04:01:53.464Z,26.47
2022-11-12T04:04:58.703Z,25.83
2022-11-12T04:08:04.064Z,27.37
2022-11-12T04:10:52.008Z,22.70
2022-11-12T04:13:41.946Z,22.27
2022-11-12T04:16:47.220Z,22.87
2022-11-12T04:19:52.597Z,23.35
2022-11-12T04:22:39.928Z,24.00
2022-11-12T04:25:44.912Z,24.13
2022-11-12T04:28:32.355Z,22.93
2022-11-12T04:31:20.182Z,22.43
2022-11-12T04:34:27.402Z,21.36
2022-11-12T04:37:14.951Z,23.17
2022-11-12T04:40:03.698Z,23.80
2022-11-12T04:43:08.951Z,27.33
2022-11-12T04:45:57.454Z,21.50
2022-11-12T04:48:44.882Z,24.73
2022-11-12T04:51:49.789Z,24.10
2022-11-12T04:54:37.350Z,19.90
2022-11-12T04:57:24.824Z,21.37
2022-11-12T05:00:14.832Z,23.15
2022-11-12T05:03:02.538Z,26.43
2022-11-12T05:05:49.800Z,20.93
2022-11-12T05:08:37.733Z,22.22
2022-11-12T05:11:25.219Z,22.57
2022-11-12T05:14:13.140Z,25.07
2022-11-12T05:17:00.556Z,23.03
2022-11-12T05:19:47.933Z,26.50
2022-11-12T05:22:45.574Z,23.07
2022-11-12T05:25:24.405Z,21.33
2022-11-12T05:28:11.678Z,21.30
2022-11-12T05:30:59.240Z,18.97
2022-11-12T05:33:46.597Z,20.30
2022-11-12T05:36:34.259Z,20.87
2022-11-12T05:39:21.976Z,28.80
2022-11-12T05:42:13.547Z,19.65
2022-11-12T05:45:00.659Z,18.37
2022-11-12T05:47:49.234Z,25.00
2022-11-12T05:50:45.438Z,20.03
2022-11-12T05:53:25.873Z,18.07
2022-11-12T05:56:13.538Z,18.47
2022-11-12T05:59:01.912Z,18.77
2022-11-12T06:01:49.856Z,15.77
2022-11-12T06:04:37.014Z,23.80
2022-11-12T06:07:24.845Z,17.57
2022-11-12T06:10:20.183Z,23.90
2022-11-12T06:13:03.351Z,16.53
2022-11-12T06:15:51.911Z,20.50
2022-11-12T06:18:39.647Z,15.47
2022-11-12T06:21:27.959Z,16.50
2022-11-12T06:24:16.104Z,17.27
2022-11-12T06:27:03.805Z,15.37
2022-11-12T06:29:51.488Z,14.80
2022-11-12T06:32:38.923Z,18.83
2022-11-12T06:35:26.321Z,15.90
2022-11-12T06:38:13.680Z,24.12
2022-11-12T06:41:01.943Z,18.70
2022-11-12T06:43:49.760Z,18.62
2022-11-12T06:46:37.365Z,19.37
2022-11-12T06:49:25.335Z,22.15
2022-11-12T06:52:16.505Z,18.12
2022-11-12T06:55:02.754Z,20.17
2022-11-12T06:57:54.754Z,17.80
2022-11-12T07:00:42.305Z,17.37
2022-11-12T07:03:29.793Z,24.30
2022-11-12T07:06:20.079Z,21.80
2022-11-12T07:09:08.056Z,21.50
2022-11-12T07:11:55.607Z,23.33
2022-11-12T07:14:42.918Z,15.40
2022-11-12T07:17:31.439Z,22.90
2022-11-12T07:20:19.021Z,22.22
2022-11-12T07:23:06.644Z,26.90
2022-11-12T07:25:59.855Z,18.57
2022-11-12T07:28:48.512Z,19.80
2022-11-12T07:31:36.220Z,19.67
2022-11-12T07:34:24.154Z,25.08
2022-11-12T07:37:11.787Z,24.63
2022-11-12T07:40:00.076Z,26.97
2022-11-12T07:42:47.729Z,19.57
2022-11-12T07:45:35.574Z,19.30
2022-11-12T07:48:22.844Z,24.30
2022-11-12T07:51:15.659Z,27.00
2022-11-12T07:54:03.037Z,23.90
2022-11-12T07:56:50.186Z,22.30
2022-11-12T07:59:41.798Z,24.30
2022-11-12T08:02:26.493Z,20.68
2022-11-12T08:05:17.680Z,24.27
2022-11-12T08:08:03.468Z,21.27
2022-11-12T08:10:59.054Z,24.30
2022-11-12T08:13:46.699Z,25.23
2022-11-12T08:16:34.634Z,19.45
2022-11-12T08:19:21.917Z,25.37
2022-11-12T08:22:11.342Z,18.52
2022-11-12T08:24:58.919Z,18.97
2022-11-12T08:27:46.537Z,20.10
2022-11-12T08:30:34.522Z,22.43
2022-11-12T08:33:22.118Z,20.67
2022-11-12T08:36:13.725Z,24.22
2022-11-12T08:39:01.083Z,25.23
2022-11-12T08:41:48.498Z,21.13
2022-11-12T08:44:35.860Z,20.23
2022-11-12T08:47:23.601Z,21.15
2022-11-12T08:50:12.363Z,19.60
2022-11-12T08:53:08.026Z,20.80
2022-11-12T08:55:56.600Z,21.70
2022-11-12T08:58:44.060Z,22.30
2022-11-12T09:01:32.406Z,15.97
2022-11-12T09:04:19.566Z,16.45
2022-11-12T09:07:09.710Z,18.63
2022-11-12T09:09:56.725Z,22.93
2022-11-12T09:12:44.282Z,20.63
2022-11-12T09:15:39.916Z,17.50
2022-11-12T09:18:21.254Z,19.70
2022-11-12T09:23:56.581Z,13.80
2022-11-12T09:26:43.941Z,13.57
2022-11-12T09:29:31.640Z,15.35
2022-11-12T09:32:19.055Z,13.85
2022-11-12T09:35:08.366Z,14.20
2022-11-12T09:37:55.779Z,13.53
2022-11-12T09:40:48.746Z,15.17
2022-11-12T09:43:42.474Z,13.13
2022-11-12T09:46:47.914Z,13.00
2022-11-12T09:49:41.327Z,17.50
2022-11-12T09:52:30.615Z,14.63
2022-11-12T09:55:20.871Z,12.37
2022-11-12T09:58:16.651Z,9.73
2022-11-12T10:01:10.074Z,10.95
2022-11-12T10:04:11.558Z,10.90
2022-11-12T10:07:18.668Z,7.63
2022-11-12T10:10:18.667Z,11.67
2022-11-12T10:13:25.592Z,10.93
2022-11-12T10:16:42.383Z,9.00
2022-11-12T10:19:41.858Z,11.13
2022-11-12T10:22:43.742Z,12.40
2022-11-12T10:25:33.159Z,14.23
2022-11-12T10:28:39.175Z,12.90
2022-11-12T10:31:26.977Z,10.03
2022-11-12T10:34:22.491Z,10.20
2022-11-12T10:37:21.127Z,12.67
2022-11-12T10:40:40.394Z,9.73
2022-11-12T10:43:27.770Z,10.00
2022-11-12T10:46:21.217Z,8.90
2022-11-12T10:49:17.402Z,10.37
2022-11-12T10:52:07.927Z,8.30
2022-11-12T10:55:19.330Z,8.80
2022-11-12T10:58:22.624Z,11.23
2022-11-12T11:01:18.501Z,11.20
2022-11-12T11:04:11.018Z,8.90
2022-11-12T11:07:24.783Z,7.83
2022-11-12T11:10:17.256Z,9.74
2022-11-12T11:13:13.300Z,10.77
2022-11-12T11:16:06.026Z,8.97
2022-11-12T11:19:02.142Z,11.27
2022-11-12T11:22:00.487Z,12.43
2022-11-12T11:25:05.776Z,14.23
2022-11-12T11:28:02.107Z,5.57
2022-11-12T11:31:07.287Z,6.60
2022-11-12T11:34:18.208Z,6.73
2022-11-12T11:37:08.909Z,5.87
2022-11-12T11:40:07.815Z,7.55
2022-11-12T11:43:07.117Z,7.73
2022-11-12T11:46:05.909Z,7.70
2022-11-12T11:49:24.297Z,7.57
2022-11-12T11:52:32.943Z,8.60
2022-11-12T11:55:42.719Z,7.87
2022-11-12T11:58:59.687Z,9.03
2022-11-12T12:02:02.034Z,7.47
2022-11-12T12:04:53.006Z,6.67
2022-11-12T12:07:52.427Z,11.40
2022-11-12T12:13:43.110Z,7.77
2022-11-12T12:16:51.572Z,6.30
2022-11-12T12:19:51.020Z,7.90
2022-11-12T12:22:41.222Z,10.05
2022-11-12T12:25:34.467Z,9.37
2022-11-12T12:28:25.337Z,7.15
2022-11-12T12:31:16.206Z,6.27
2022-11-12T12:34:23.991Z,8.33
2022-11-12T12:37:22.674Z,9.70
2022-11-12T12:40:31.750Z,7.00
2022-11-12T12:43:24.894Z,11.63
2022-11-12T12:46:15.084Z,10.47
2022-11-12T12:49:05.425Z,8.80
2022-11-12T12:51:55.920Z,9.93
2022-11-12T12:54:54.519Z,10.10
2022-11-12T12:57:42.252Z,8.50
2022-11-12T13:00:35.725Z,8.70
2022-11-12T13:03:43.592Z,8.40
2022-11-12T13:06:48.867Z,10.63
2022-11-12T13:09:36.270Z,7.70
2022-11-12T13:12:27.156Z,8.85
2022-11-12T13:15:16.659Z,9.60
2022-11-12T13:18:06.753Z,7.80
2022-11-12T13:21:15.508Z,7.27
2022-11-12T13:24:11.323Z,7.67
2022-11-12T13:27:00.428Z,9.57
2022-11-12T13:29:49.035Z,6.23
2022-11-12T13:32:44.738Z,9.40
2022-11-12T13:35:37.209Z,11.70
2022-11-12T13:38:24.980Z,8.65
2022-11-12T13:41:22.724Z,8.17
2022-11-12T13:44:14.169Z,12.03
2022-11-12T13:47:01.888Z,8.43
2022-11-12T13:49:49.932Z,13.07
2022-11-12T13:52:40.097Z,8.20
2022-11-12T13:55:27.945Z,10.93
2022-11-12T13:58:33.063Z,14.07
2022-11-12T14:01:23.305Z,7.10
2022-11-12T14:04:23.913Z,8.28
2022-11-12T14:07:32.007Z,9.63
2022-11-12T14:10:36.942Z,9.70
2022-11-12T14:13:46.487Z,9.87
2022-11-12T14:16:51.706Z,8.20
2022-11-12T14:20:03.471Z,7.15
2022-11-12T14:22:51.202Z,10.17
2022-11-12T14:25:50.466Z,6.93
2022-11-12T14:28:39.688Z,15.67
2022-11-12T14:31:27.285Z,8.73
2022-11-12T14:34:22.280Z,12.20
2022-11-12T14:37:12.897Z,9.60
2022-11-12T14:40:00.247Z,9.93
2022-11-12T14:42:48.248Z,8.27
2022-11-12T14:45:35.797Z,9.43
2022-11-12T14:48:23.312Z,13.37
2022-11-12T14:51:14.004Z,10.50
2022-11-12T14:54:10.287Z,13.57
2022-11-12T14:56:59.465Z,10.23
2022-11-12T14:59:46.988Z,11.77
2022-11-12T15:02:53.443Z,7.80
2022-11-12T15:05:24.614Z,10.23
2022-11-12T15:08:12.835Z,9.53
2022-11-12T15:11:24.142Z,10.83
2022-11-12T15:14:14.994Z,10.52
2022-11-12T15:17:04.344Z,13.90
2022-11-12T15:19:51.475Z,13.17
2022-11-12T15:22:39.499Z,11.53
2022-11-12T15:25:30.552Z,9.40
2022-11-12T15:28:25.592Z,11.18
2022-11-12T15:31:21.793Z,9.63
2022-11-12T15:34:30.446Z,10.55
2022-11-12T15:37:25.325Z,11.85
2022-11-12T15:40:22.567Z,12.70
2022-11-12T15:43:16.150Z,9.63
2022-11-12T15:46:03.963Z,15.17
2022-11-12T15:48:55.743Z,14.40
2022-11-12T15:51:40.442Z,18.53
2022-11-12T15:54:27.651Z,19.62
2022-11-12T15:57:21.437Z,14.95
2022-11-12T16:00:17.203Z,18.37
2022-11-12T16:03:21.587Z,18.37
2022-11-12T16:06:13.948Z,16.35
2022-11-12T16:09:01.729Z,16.40
2022-11-12T16:11:51.317Z,15.77
2022-11-12T16:14:38.818Z,12.30
2022-11-12T16:17:26.482Z,15.70
2022-11-12T16:20:17.680Z,14.28
2022-11-12T16:23:05.204Z,14.77
2022-11-12T16:25:52.796Z,13.50
2022-11-12T16:28:40.601Z,11.27
2022-11-12T16:31:28.366Z,15.10
2022-11-12T16:34:15.941Z,16.32
2022-11-12T16:37:03.673Z,11.93
2022-11-12T16:39:51.111Z,16.33
2022-11-12T16:42:40.245Z,13.53
2022-11-12T16:45:30.649Z,14.17
2022-11-12T16:48:23.141Z,12.33
2022-11-12T16:51:20.594Z,19.53
2022-11-12T16:56:54.559Z,22.13
2022-11-12T16:59:41.940Z,21.67
2022-11-12T17:02:29.615Z,20.47
2022-11-12T17:05:20.607Z,19.90
2022-11-12T17:08:10.964Z,19.30
2022-11-12T17:10:58.853Z,17.80
2022-11-12T17:13:46.753Z,16.75
2022-11-12T17:16:34.222Z,18.90
2022-11-12T17:19:21.657Z,15.73
2022-11-12T17:22:11.267Z,46.55
2022-11-12T17:24:58.708Z,20.37
2022-11-12T17:27:46.104Z,19.80
2022-11-12T17:30:33.890Z,22.73
2022-11-12T17:33:21.387Z,17.87
2022-11-12T17:36:14.228Z,17.87
2022-11-12T17:39:01.843Z,17.00
2022-11-12T17:41:50.116Z,16.30
2022-11-12T17:44:37.898Z,22.10
2022-11-12T17:47:25.748Z,16.70
2022-11-12T17:50:14.088Z,16.60
2022-11-12T17:53:01.219Z,17.33
2022-11-12T17:55:48.762Z,17.40
2022-11-12T17:58:36.224Z,19.45
2022-11-12T18:01:26.347Z,14.73
2022-11-12T18:04:13.774Z,15.68
2022-11-12T18:07:01.259Z,19.67
2022-11-12T18:09:48.723Z,16.97
2022-11-12T18:12:36.645Z,18.12
2022-11-12T18:15:24.298Z,23.32
2022-11-12T18:18:11.381Z,16.30
2022-11-12T18:20:59.153Z,16.27
2022-11-12T18:23:46.669Z,19.37
2022-11-12T18:26:34.465Z,14.63
2022-11-12T18:29:21.849Z,18.43
2022-11-12T18:32:11.071Z,19.35
2022-11-12T18:34:58.600Z,16.90
2022-11-12T18:37:46.051Z,24.00
2022-11-12T18:40:33.901Z,19.30
2022-11-12T18:43:21.254Z,19.73
2022-11-12T18:46:12.090Z,18.66
2022-11-12T18:48:59.612Z,16.00
2022-11-12T18:51:47.413Z,18.23
2022-11-12T18:54:34.996Z,15.80
2022-11-12T18:57:22.646Z,15.23
2022-11-12T19:00:12.282Z,15.80
2022-11-12T19:02:59.969Z,16.97
2022-11-12T19:05:48.113Z,19.03
2022-11-12T19:08:36.244Z,16.93
2022-11-12T19:11:23.417Z,22.15
2022-11-12T19:14:12.069Z,21.30
2022-11-12T19:16:59.862Z,20.90
2022-11-12T19:19:47.604Z,19.50
2022-11-12T19:22:34.984Z,23.80
2022-11-12T19:25:22.717Z,17.70
2022-11-12T19:28:11.494Z,21.87
2022-11-12T19:30:59.109Z,20.30
2022-11-12T19:33:47.553Z,17.00
2022-11-12T19:36:35.065Z,18.93
2022-11-12T19:39:22.720Z,25.63
2022-11-12T19:42:11.488Z,32.63
2022-11-12T19:44:59.037Z,26.50
2022-11-12T19:47:47.432Z,25.77
2022-11-12T19:50:36.587Z,32.78
2022-11-12T19:53:23.992Z,32.30
2022-11-12T19:56:14.131Z,25.97
2022-11-12T19:59:02.091Z,23.90
2022-11-12T20:01:49.508Z,26.93
2022-11-12T20:04:37.211Z,23.37
2022-11-12T20:07:25.061Z,23.53
2022-11-12T20:10:14.327Z,23.30
2022-11-12T20:13:03.217Z,20.10
2022-11-12T20:15:50.902Z,19.20
2022-11-12T20:18:38.316Z,19.60
2022-11-12T20:21:26.783Z,24.40
2022-11-12T20:24:14.329Z,27.45
2022-11-12T20:27:01.950Z,25.67
2022-11-12T20:29:49.558Z,28.97
2022-11-12T20:32:37.002Z,29.63
2022-11-12T20:35:24.773Z,33.58
2022-11-12T20:38:12.009Z,31.73
2022-11-12T20:41:02.647Z,35.40
2022-11-12T20:43:55.612Z,37.53
2022-11-12T20:46:43.057Z,31.47
2022-11-12T20:49:30.675Z,29.60
2022-11-12T20:52:18.563Z,27.17
2022-11-12T20:55:07.876Z,28.57
2022-11-12T20:57:55.159Z,29.05
2022-11-12T21:00:42.934Z,29.70
2022-11-12T21:03:30.407Z,27.63
2022-11-12T21:06:21.265Z,25.87
2022-11-12T21:09:08.541Z,27.33
2022-11-12T21:11:55.900Z,31.27
2022-11-12T21:14:49.040Z,26.65
2022-11-12T21:17:32.503Z,27.97
2022-11-12T21:20:19.939Z,24.67
2022-11-12T21:23:07.331Z,29.03
2022-11-12T21:25:55.028Z,31.43
2022-11-12T21:31:30.696Z,24.35
2022-11-12T21:34:18.062Z,28.00
2022-11-12T21:37:05.855Z,25.50
2022-11-12T21:39:53.213Z,23.63
2022-11-12T21:42:46.917Z,22.10
2022-11-12T21:45:34.599Z,22.47
2022-11-12T21:48:22.133Z,30.47
2022-11-12T21:51:13.144Z,24.50
2022-11-12T21:54:04.106Z,22.33
2022-11-12T21:56:51.623Z,21.23
2022-11-12T21:59:39.074Z,25.77
2022-11-12T22:02:26.567Z,24.23
2022-11-12T22:05:15.090Z,24.00
2022-11-12T22:08:02.512Z,25.77
2022-11-12T22:10:49.873Z,26.80
2022-11-12T22:13:38.641Z,22.90
2022-11-12T22:16:29.451Z,20.10
2022-11-12T22:19:16.896Z,25.37
2022-11-12T22:22:06.399Z,21.97
2022-11-12T22:24:53.921Z,25.10
2022-11-12T22:27:41.140Z,30.07
2022-11-12T22:30:29.210Z,23.30
2022-11-12T22:33:16.975Z,25.53
2022-11-12T22:36:09.156Z,32.55
2022-11-12T22:38:56.993Z,28.90
2022-11-12T22:41:44.654Z,26.50
2022-11-12T22:44:32.198Z,23.67
2022-11-12T22:50:07.620Z,26.30
2022-11-12T22:52:56.537Z,22.70
2022-11-12T22:55:44.347Z,24.92
2022-11-12T22:58:33.378Z,23.07
2022-11-12T23:01:32.717Z,25.75
2022-11-12T23:04:20.029Z,25.47
2022-11-12T23:07:07.724Z,21.90
2022-11-12T23:09:55.718Z,23.47
2022-11-12T23:12:43.672Z,23.87
2022-11-12T23:15:31.326Z,25.23
2022-11-12T23:18:18.284Z,23.33
2022-11-12T23:21:11.285Z,23.90
2022-11-12T23:23:59.896Z,27.17
2022-11-12T23:26:47.299Z,28.23
2022-11-12T23:29:34.987Z,24.50
2022-11-12T23:32:22.472Z,25.92
2022-11-12T23:35:11.318Z,32.87
2022-11-12T23:37:58.654Z,30.87
2022-11-12T23:40:57.070Z,25.00
2022-11-12T23:43:45.406Z,26.62
2022-11-12T23:46:33.191Z,29.40
2022-11-12T23:49:20.758Z,29.37
2022-11-12T23:52:09.573Z,26.97
2022-11-12T23:54:57.051Z,30.97
2022-11-12T23:57:44.998Z,27.62
